Latest Coastal Weather Observations for Kowanyama

IDQ60701

Issued at 8:15 am EST Thursday 2 October 2014 (issued every 10 minutes, with the page automatically refreshed every 10 minutes)

About coastal observations | Map of coastal stations | Coastal observations for QLD | Marine services | Other Formats
Station Details ID: 029038 Name: KOWANYAMA AIRPORT Lat: -15.48 Lon: 141.75 Height: 9.6 m
Data from the previous 72 hours. | See also: Recent months at Kowanyama
Date/Time
EST
Temp

°C
Wind Pressure Rain
since 9am
mm
Weather Cloud Vis
km
Sea
Height
m
Swell
Dir
 
Speed
knots
Gust
knots
hPa Trend Height
m
Period
s
Dir
02/08:00am 23.7 ENE 7 10 1015.2 - 0.0 - - - - - - -
02/07:30am 22.1 ENE 1 4 1015.0 - 0.0 - - - - - - -
02/07:00am 18.6 CALM 0 0 1014.4 - 0.0 - - - - - - -
02/06:30am 18.0 CALM 0 0 1014.2 - 0.0 - - - - - - -
02/06:00am 18.8 CALM 0 0 1013.9 - 0.0 - - - - - - -
02/05:30am 20.2 NE 1 4 1013.6 - 0.0 - - - - - - -
02/05:00am 21.0 NE 3 5 1013.3 - 0.0 - - - - - - -
02/04:30am 21.6 ENE 4 7 1013.2 - 0.0 - - - - - - -
02/04:00am 21.9 ENE 5 9 1013.0 - 0.0 - - - - - - -
02/03:30am 22.1 E 6 10 1013.1 - 0.0 - - - - - - -
02/03:00am 22.1 ENE 4 6 1013.0 - 0.0 - - - - - - -
02/02:30am 22.6 NE 5 7 1012.9 - 0.0 - - - - - - -
02/02:00am 22.7 NE 5 7 1013.0 - 0.0 - - - - - - -
02/01:30am 23.2 NE 5 7 1013.3 - 0.0 - - - - - - -
02/01:00am 23.7 NE 5 7 1013.5 - 0.0 - - - - - - -
02/12:30am 23.8 NNE 6 9 1013.6 - 0.0 - - - - - - -
02/12:00am 23.4 NNE 5 7 1013.4 - 0.0 - - - - - - -
 
Date/Time
EST
Temp

°C
Wind Pressure Rain
since 9am
mm
Weather Cloud Vis
km
Sea
Height
m
Swell
Dir
 
Speed
knots
Gust
knots
hPa Trend Height
m
Period
s
Dir
01/11:30pm 23.7 NNE 5 7 1013.8 - 0.0 - - - - - - -
01/11:00pm 24.0 NNW 5 14 1013.2 - 0.0 - - - - - - -
01/10:30pm 22.6 CALM 0 4 1012.5 - 0.0 - - - - - - -
01/10:00pm 22.8 SW 1 3 1012.6 - 0.0 - - - - - - -
01/09:30pm 23.4 SW 2 4 1012.6 - 0.0 - - - - - - -
01/09:00pm 24.0 WSW 4 5 1012.5 - 0.0 - - - - - - -
01/08:30pm 24.5 WSW 4 6 1012.2 - 0.0 - - - - - - -
01/08:00pm 25.1 SW 6 8 1012.0 - 0.0 - - - - - - -
01/07:30pm 25.8 SW 8 11 1011.7 - 0.0 - Partly cloudy - - - - -
01/07:00pm 26.6 WSW 8 11 1011.3 - 0.0 - - - - - - -
01/06:30pm 27.8 WSW 8 11 1010.9 - 0.0 - - - - - - -
01/06:00pm 29.5 WSW 8 12 1010.3 - 0.0 - - - - - - -
01/05:30pm 33.8 ESE 9 13 1009.8 - 0.0 - - - - - - -
01/05:00pm 34.0 SE 8 14 1009.7 - 0.0 - - - - - - -
01/04:30pm 34.0 E 10 17 1009.6 - 0.0 - - - - - - -
01/04:00pm 34.2 ESE 10 13 1009.8 - 0.0 - - - - - - -
01/03:30pm 34.3 ESE 10 14 1010.1 - 0.0 - - - - - - -
01/03:00pm 34.0 SE 11 16 1010.4 - 0.0 - - - - - - -
01/02:30pm 33.6 SE 11 17 1010.9 - 0.0 - - - - - - -
01/02:00pm 32.2 SE 9 16 1011.3 - 0.0 - - - - - - -
01/01:30pm 32.1 SE 5 11 1012.0 - 0.0 - - - - - - -
01/01:00pm 31.6 E 8 13 1012.6 - 0.0 - - - - - - -
01/12:30pm 30.7 E 7 16 1013.4 - 0.0 - - - - - - -
01/12:00pm 30.3 ESE 10 17 1014.3 - 0.0 - - - - - - -
01/11:30am 30.0 ENE 8 14 1014.9 - 0.0 - - - - - - -
01/11:00am 28.8 E 9 15 1015.6 - 0.0 - - - - - - -
01/10:30am 27.7 E 9 17 1016.0 - 0.0 - - - - - - -
01/10:00am 27.3 ENE 9 14 1016.2 - 0.0 - - - - - - -
01/09:30am 26.8 E 10 17 1016.6 - 0.0 - - - - - - -
01/09:00am 25.6 ENE 12 18 1016.7 - 0.0 - - - - - - -
01/08:30am 24.4 ENE 10 15 1016.6 - 0.0 - - - - - - -
01/08:00am 23.7 E 7 11 1016.6 - 0.0 - - - - - - -
01/07:30am 21.9 ENE 3 6 1016.4 - 0.0 - - - - - - -
01/07:00am 20.0 E 3 4 1015.9 - 0.0 - - - - - - -
01/06:30am 18.2 E 3 4 1015.7 - 0.0 - - - - - - -
01/06:00am 18.5 E 3 5 1015.4 - 0.0 - - - - - - -
01/05:30am 18.9 CALM 0 1 1015.1 - 0.0 - - - - - - -
01/05:00am 20.0 ESE 3 4 1014.8 - 0.0 - - - - - - -
01/04:30am 21.1 E 2 4 1014.4 - 0.0 - - - - - - -
01/04:00am 21.9 NNE 4 7 1013.7 - 0.0 - - - - - - -
01/03:30am 22.3 NNE 5 7 1014.0 - 0.0 - - - - - - -
01/03:00am 22.4 NE 4 8 1014.3 - 0.0 - - - - - - -
01/02:30am 22.1 NE 4 5 1014.4 - 0.0 - - - - - - -
01/02:00am 21.8 NE 4 5 1014.5 - 0.0 - - - - - - -
01/01:30am 21.6 ENE 3 5 1014.6 - 0.0 - - - - - - -
01/01:00am 21.9 ENE 2 4 1014.6 - 0.0 - - - - - - -
01/12:30am 22.1 NNE 4 6 1014.7 - 0.0 - - - - - - -
01/12:00am 22.8 ESE 4 5 1014.8 - 0.0 - - - - - - -
 
Date/Time
EST
Temp

°C
Wind Pressure Rain
since 9am
mm
Weather Cloud Vis
km
Sea
Height
m
Swell
Dir
 
Speed
knots
Gust
knots
hPa Trend Height
m
Period
s
Dir
30/11:30pm 22.9 E 5 7 1014.9 - 0.0 - - - - - - -
30/11:00pm 23.4 ENE 3 5 1014.8 - 0.0 - - - - - - -
30/10:30pm 23.9 CALM 0 0 1014.8 - 0.0 - - - - - - -
30/10:00pm 24.0 E 2 3 1014.8 - 0.0 - - - - - - -
30/09:30pm 24.6 SE 2 4 1014.5 - 0.0 - - - - - - -
30/09:00pm 24.9 SSW 5 7 1014.1 - 0.0 - - - - - - -
30/08:30pm 25.3 SSW 5 6 1013.8 - 0.0 - - - - - - -
30/08:00pm 25.7 SW 6 8 1013.4 - 0.0 - - - - - - -
30/07:30pm 26.3 WSW 6 8 1013.0 - 0.0 - - - - - - -
30/07:00pm 27.1 WSW 6 9 1012.6 - 0.0 - - - - - - -
30/06:30pm 28.0 WSW 7 11 1011.9 - 0.0 - - - - - - -
30/06:00pm 29.4 W 10 13 1011.3 - 0.0 - - - - - - -
30/05:30pm 33.7 SE 7 11 1010.9 - 0.0 - - - - - - -
30/05:00pm 33.6 ESE 13 18 1010.7 - 0.0 - - - - - - -
30/04:30pm 33.3 E 5 9 1010.7 - 0.0 - - - - - - -
30/04:00pm 33.0 E 10 14 1010.8 - 0.0 - - - - - - -
30/03:30pm 33.6 ESE 10 15 1011.0 - 0.0 - - - - - - -
30/03:00pm 33.2 ESE 9 17 1011.4 - 0.0 - - - - - - -
30/02:30pm 33.3 SSE 9 13 1011.7 - 0.0 - - - - - - -
30/02:00pm 32.4 SSE 9 13 1012.1 - 0.0 - - - - - - -
30/01:30pm 31.5 ESE 6 10 1012.8 - 0.0 - - - - - - -
30/01:00pm 31.5 ENE 10 15 1013.4 - 0.0 - - - - - - -
30/12:30pm 30.3 ESE 8 15 1014.0 - 0.0 - - - - - - -
30/12:00pm 30.0 ESE 12 18 1014.6 - 0.0 - - - - - - -
30/11:30am 30.1 ENE 9 13 1015.3 - 0.0 - - - - - - -
30/11:00am 28.6 E 8 13 1016.0 - 0.0 - - - - - - -
30/10:30am 28.1 E 11 16 1016.5 - 0.0 - - - - - - -
30/10:00am 27.7 ENE 10 16 1016.9 - 0.0 - - - - - - -
30/09:30am 27.0 ENE 10 17 1017.1 - 0.0 - - - - - - -
30/09:00am 26.1 ENE 8 10 1017.3 - 0.0 - - - - - - -
30/08:30am 25.2 ENE 7 11 1017.2 - 0.0 - - - - - - -
30/08:00am 24.1 E 6 10 1017.0 - 0.0 - - - - - - -
30/07:30am 22.5 E 3 5 1016.8 - 0.0 - - - - - - -
30/07:00am 20.3 ESE 2 4 1016.4 - 0.0 - - - - - - -
30/06:30am 19.1 ESE 1 4 1016.0 - 0.0 - - - - - - -
30/06:00am 19.0 CALM 0 0 1015.7 - 0.0 - - - - - - -
30/05:30am 18.9 CALM 0 0 1015.3 - 0.0 - - - - - - -
30/05:00am 19.5 CALM 0 0 1015.0 - 0.0 - - - - - - -
30/04:30am 20.1 CALM 0 0 1014.7 - 0.0 - - - - - - -
30/04:00am 21.2 E 3 5 1014.4 - 0.0 - - - - - - -
30/03:30am 21.4 E 3 4 1014.3 - 0.0 - - - - - - -
30/03:00am 21.7 CALM 0 0 1014.4 - 0.0 - - - - - - -
30/02:30am 22.6 NE 4 5 1014.5 - 0.0 - - - - - - -
30/02:00am 22.7 NE 4 5 1014.7 - 0.0 - - - - - - -
30/01:30am 23.1 NNE 3 5 1014.9 - 0.0 - - - - - - -
30/01:00am 23.5 NNE 4 5 1015.0 - 0.0 - - - - - - -
30/12:30am 23.6 NNE 4 6 1015.2 - 0.0 - - - - - - -
30/12:00am 23.3 NNE 4 6 1015.2 - 0.0 - - - - - - -
 
Date/Time
EST
Temp

°C
Wind Pressure Rain
since 9am
mm
Weather Cloud Vis
km
Sea
Height
m
Swell
Dir
 
Speed
knots
Gust
knots
hPa Trend Height
m
Period
s
Dir
29/11:30pm 22.8 N 3 5 1015.2 - 0.0 - - - - - - -
29/11:00pm 23.1 N 3 4 1015.2 - 0.0 - - - - - - -
29/10:30pm 23.5 NNE 2 3 1015.1 - 0.0 - - - - - - -
29/10:00pm 23.2 ENE 4 8 1014.9 - 0.0 - - - - - - -
29/09:30pm 23.9 CALM 0 0 1014.2 - 0.0 - - - - - - -
29/09:00pm 24.5 NNW 2 4 1013.5 - 0.0 - - - - - - -
29/08:30pm 25.3 WSW 3 5 1013.1 - 0.0 - - - - - - -
29/08:00pm 25.9 SW 5 8 1012.7 - 0.0 - - - - - - -
29/07:30pm 26.5 SW 6 8 1012.3 - 0.0 - - - - - - -
29/07:00pm 27.2 WSW 7 8 1011.8 - 0.0 - - - - - - -
29/06:30pm 28.7 WSW 8 9 1011.2 - 0.0 - - - - - - -
29/06:00pm 33.1 ESE 5 8 1010.6 - 0.0 - - - - - - -
29/05:30pm 33.5 ESE 7 11 1010.3 - 0.0 - - - - - - -
29/05:00pm 33.8 ESE 7 12 1010.1 - 0.0 - - - - - - -
29/04:30pm 34.1 ESE 7 14 1010.0 - 0.0 - - - - - - -
29/04:00pm 34.4 E 8 12 1010.1 - 0.0 - - - - - - -
29/03:30pm 33.8 ENE 7 17 1010.2 - 0.0 - - - - - - -
29/03:00pm 33.4 E 12 16 1010.5 - 0.0 - - - - - - -
29/02:30pm 33.3 SE 11 13 1010.9 - 0.0 - - - - - - -
29/02:00pm 33.4 ESE 11 18 1011.5 - 0.0 - - - - - - -
29/01:30pm 32.6 ESE 7 12 1012.0 - 0.0 - - - - - - -
29/01:00pm 31.6 E 8 13 1012.6 - 0.0 - - - - - - -
29/12:30pm 31.8 E 9 16 1013.1 - 0.0 - - - - - - -
29/12:00pm 31.2 ESE 9 16 1013.7 - 0.0 - - - - - - -
29/11:30am 29.7 E 11 15 1014.5 - 0.0 - - - - - - -
29/11:00am 30.1 ENE 9 14 1014.9 - 0.0 - - - - - - -
29/10:30am 28.7 E 12 18 1015.3 - 0.0 - - - - - - -
29/10:00am 28.2 E 10 17 1015.5 - 0.0 - - - - - - -
29/09:30am 27.2 NE 11 17 1015.8 - 0.0 - - - - - - -
29/09:00am 26.1 ENE 11 19 1015.9 - 0.0 - - - - - - -
29/08:30am 25.2 E 11 16 1015.9 - 0.0 - - - - - - -

Other Formats:

Comma delimited format used in spreadsheet applications
http://www.bom.gov.au/fwo/IDQ60701/IDQ60701.94268.axf

JavaScript Object Notation format (JSON) in row-major order
http://www.bom.gov.au/fwo/IDQ60701/IDQ60701.94268.json